createdAt,value
2023-04-09T00:02:36.473Z,80.10
2023-04-09T00:05:10.097Z,77.70
2023-04-09T00:07:54.123Z,75.90
2023-04-09T00:10:37.420Z,72.70
2023-04-09T00:16:26.219Z,68.60
2023-04-09T00:19:19.113Z,69.60
2023-04-09T00:22:12.237Z,74.80
2023-04-09T00:25:05.291Z,79.40
2023-04-09T00:27:47.160Z,83.90
2023-04-09T00:30:40.063Z,84.10
2023-04-09T00:33:22.833Z,76.20
2023-04-09T00:36:15.656Z,74.90
2023-04-09T00:38:48.805Z,65.80
2023-04-09T00:41:22.338Z,64.60
2023-04-09T00:44:00.401Z,65.40
2023-04-09T00:46:34.323Z,57.30
2023-04-09T00:49:07.119Z,53.50
2023-04-09T00:51:40.722Z,56.50
2023-04-09T00:54:13.997Z,55.00
2023-04-09T00:56:46.987Z,55.10
2023-04-09T00:59:19.468Z,56.70
2023-04-09T01:01:54.839Z,55.40
2023-04-09T01:04:29.828Z,55.90
2023-04-09T01:07:12.645Z,55.70
2023-04-09T01:09:56.699Z,50.00
2023-04-09T01:12:38.239Z,52.30
2023-04-09T01:15:16.523Z,50.70
2023-04-09T01:17:54.626Z,50.30
2023-04-09T01:20:38.745Z,50.70
2023-04-09T01:23:20.841Z,56.00
2023-04-09T01:26:06.058Z,57.20
2023-04-09T01:28:54.737Z,58.10
2023-04-09T01:31:31.092Z,66.60
2023-04-09T01:34:05.106Z,70.40
2023-04-09T01:36:43.458Z,62.00
2023-04-09T01:39:17.990Z,64.20
2023-04-09T01:41:54.353Z,65.30
2023-04-09T01:44:30.955Z,67.70
2023-04-09T01:47:07.219Z,66.10
2023-04-09T01:49:44.703Z,64.50
2023-04-09T01:52:17.504Z,68.40
2023-04-09T01:54:53.036Z,65.90
2023-04-09T01:57:25.804Z,65.10
2023-04-09T02:00:01.108Z,64.10
2023-04-09T02:02:48.464Z,65.60
2023-04-09T02:05:24.264Z,66.90
2023-04-09T02:08:13.977Z,65.20
2023-04-09T02:10:57.162Z,63.30
2023-04-09T02:13:34.940Z,61.00
2023-04-09T02:16:09.874Z,63.30
2023-04-09T02:18:54.586Z,62.10
2023-04-09T02:24:12.362Z,62.60
2023-04-09T02:26:47.936Z,63.60
2023-04-09T02:29:20.692Z,67.60
2023-04-09T02:31:53.696Z,64.70
2023-04-09T02:34:26.626Z,68.00
2023-04-09T02:37:02.113Z,66.40
2023-04-09T02:39:34.643Z,62.70
2023-04-09T02:42:08.438Z,68.00
2023-04-09T02:44:41.096Z,68.00
2023-04-09T02:47:14.068Z,65.70
2023-04-09T02:49:49.645Z,63.80
2023-04-09T02:52:33.505Z,62.50
2023-04-09T02:55:16.333Z,62.60
2023-04-09T02:58:09.282Z,61.70
2023-04-09T03:00:52.051Z,63.10
2023-04-09T03:03:31.066Z,59.80
2023-04-09T03:06:08.683Z,56.60
2023-04-09T03:08:44.477Z,63.70
2023-04-09T03:11:17.435Z,61.10
2023-04-09T03:13:53.081Z,63.00
2023-04-09T03:16:27.748Z,66.30
2023-04-09T03:19:02.977Z,66.70
2023-04-09T03:21:35.733Z,69.20
2023-04-09T03:24:09.195Z,72.60
2023-04-09T03:26:42.216Z,72.70
2023-04-09T03:29:17.474Z,75.00
2023-04-09T03:32:01.000Z,81.90
2023-04-09T03:34:33.625Z,78.20
2023-04-09T03:37:13.792Z,67.10
2023-04-09T03:39:47.475Z,67.60
2023-04-09T03:42:20.368Z,62.30
2023-04-09T03:44:57.962Z,67.90
2023-04-09T03:47:38.217Z,62.80
2023-04-09T03:50:21.697Z,65.80
2023-04-09T03:52:58.781Z,68.20
2023-04-09T03:55:31.542Z,64.60
2023-04-09T03:58:05.294Z,66.60
2023-04-09T04:00:41.625Z,65.10
2023-04-09T04:03:27.682Z,65.40
2023-04-09T04:06:22.043Z,65.30
2023-04-09T04:09:00.946Z,65.60
2023-04-09T04:11:40.827Z,66.30
2023-04-09T04:14:16.868Z,60.50
2023-04-09T04:16:54.253Z,62.30
2023-04-09T04:19:46.918Z,61.80
2023-04-09T04:22:23.307Z,63.90
2023-04-09T04:25:01.365Z,64.30
2023-04-09T04:27:37.816Z,60.70
2023-04-09T04:30:21.756Z,59.80
2023-04-09T04:33:02.977Z,59.30
2023-04-09T04:35:41.198Z,57.50
2023-04-09T04:38:17.728Z,57.20
2023-04-09T04:41:01.358Z,57.30
2023-04-09T04:43:45.127Z,58.20
2023-04-09T04:46:24.150Z,59.20
2023-04-09T04:48:59.649Z,59.70
2023-04-09T04:51:33.548Z,61.70
2023-04-09T04:54:10.601Z,60.70
2023-04-09T04:56:46.856Z,60.90
2023-04-09T04:59:44.038Z,69.00
2023-04-09T05:02:19.378Z,66.40
2023-04-09T05:05:12.549Z,68.80
2023-04-09T05:07:53.100Z,67.90
2023-04-09T05:10:46.975Z,63.00
2023-04-09T05:13:30.148Z,61.20
2023-04-09T05:16:03.835Z,60.90
2023-04-09T05:18:37.410Z,58.00
2023-04-09T05:21:11.713Z,54.70
2023-04-09T05:23:46.494Z,59.30
2023-04-09T05:26:19.066Z,56.50
2023-04-09T05:28:58.689Z,56.90
2023-04-09T05:31:31.372Z,54.60
2023-04-09T05:34:08.950Z,52.80
2023-04-09T05:36:50.463Z,52.10
2023-04-09T05:39:26.686Z,51.40
2023-04-09T05:42:19.427Z,49.40
2023-04-09T05:45:18.456Z,46.80
2023-04-09T05:47:54.268Z,51.80
2023-04-09T05:50:31.831Z,127.10
2023-04-09T05:53:09.422Z,196.70
2023-04-09T05:55:44.840Z,50.40
2023-04-09T05:58:29.610Z,46.20
2023-04-09T06:01:10.335Z,44.00
2023-04-09T06:03:46.869Z,52.20
2023-04-09T06:06:30.412Z,51.30
2023-04-09T06:09:04.712Z,53.50
2023-04-09T06:11:43.513Z,57.30
2023-04-09T06:14:18.499Z,64.30
2023-04-09T06:16:51.019Z,60.50
2023-04-09T06:19:25.806Z,51.90
2023-04-09T06:21:58.622Z,51.80
2023-04-09T06:24:32.055Z,51.00
2023-04-09T06:27:05.009Z,49.70
2023-04-09T06:29:37.682Z,45.60
2023-04-09T06:32:12.143Z,43.90
2023-04-09T06:34:46.874Z,40.10
2023-04-09T06:37:21.669Z,41.00
2023-04-09T06:40:00.827Z,45.20
2023-04-09T06:42:35.422Z,44.40
2023-04-09T06:45:17.227Z,40.10
2023-04-09T06:47:50.138Z,38.50
2023-04-09T06:50:23.039Z,36.40
2023-04-09T06:52:57.783Z,34.20
2023-04-09T06:55:34.144Z,35.30
2023-04-09T06:58:07.189Z,36.20
2023-04-09T07:00:42.873Z,35.50
2023-04-09T07:03:16.119Z,32.80
2023-04-09T07:05:52.219Z,33.40
2023-04-09T07:08:25.113Z,33.60
2023-04-09T07:10:58.109Z,29.70
2023-04-09T07:13:31.405Z,32.40
2023-04-09T07:16:09.671Z,30.90
2023-04-09T07:18:42.131Z,31.10
2023-04-09T07:21:15.278Z,30.80
2023-04-09T07:23:48.181Z,30.60
2023-04-09T07:26:20.894Z,28.50
2023-04-09T07:28:56.256Z,30.60
2023-04-09T07:31:35.310Z,28.50
2023-04-09T07:34:08.998Z,29.00
2023-04-09T07:36:44.291Z,29.50
2023-04-09T07:39:21.254Z,28.50
2023-04-09T07:41:54.193Z,28.00
2023-04-09T07:44:27.200Z,28.80
2023-04-09T07:47:02.670Z,28.10
2023-04-09T07:49:40.625Z,27.70
2023-04-09T07:52:13.286Z,26.70
2023-04-09T07:54:45.828Z,27.60
2023-04-09T07:57:20.898Z,26.40
2023-04-09T07:59:54.211Z,26.10
2023-04-09T08:02:35.222Z,26.00
2023-04-09T08:05:12.294Z,27.30
2023-04-09T08:07:44.752Z,32.60
2023-04-09T08:10:17.203Z,25.10
2023-04-09T08:12:51.262Z,26.60
2023-04-09T08:15:24.263Z,26.80
2023-04-09T08:17:59.720Z,29.20
2023-04-09T08:20:45.735Z,30.20
2023-04-09T08:23:28.162Z,33.10
2023-04-09T08:26:00.722Z,28.10
2023-04-09T08:28:43.403Z,27.90
2023-04-09T08:31:26.609Z,27.40
2023-04-09T08:34:10.724Z,26.50
2023-04-09T08:36:49.986Z,28.00
2023-04-09T08:39:37.501Z,28.80
2023-04-09T08:42:16.261Z,27.40
2023-04-09T08:44:52.024Z,28.20
2023-04-09T08:47:30.560Z,27.20
2023-04-09T08:50:12.872Z,27.30
2023-04-09T08:52:50.649Z,26.30
2023-04-09T08:55:31.444Z,27.30
2023-04-09T08:58:15.604Z,29.10
2023-04-09T09:00:51.577Z,28.70
2023-04-09T09:03:53.390Z,26.10
2023-04-09T09:06:32.881Z,29.10
2023-04-09T09:09:17.096Z,27.30
2023-04-09T09:12:11.565Z,27.50
2023-04-09T09:14:44.325Z,26.90
2023-04-09T09:17:20.286Z,28.10
2023-04-09T09:19:56.913Z,28.40
2023-04-09T09:22:57.867Z,26.00
2023-04-09T09:25:51.313Z,26.30
2023-04-09T09:28:37.969Z,27.40
2023-04-09T09:31:13.449Z,27.50
2023-04-09T09:34:01.337Z,26.40
2023-04-09T09:36:37.633Z,26.60
2023-04-09T09:39:12.332Z,24.70
2023-04-09T09:41:45.957Z,24.70
2023-04-09T09:44:34.034Z,24.90
2023-04-09T09:47:15.623Z,24.50
2023-04-09T09:49:58.363Z,23.00
2023-04-09T09:52:44.629Z,23.20
2023-04-09T09:55:22.637Z,22.00
2023-04-09T09:57:57.551Z,24.70
2023-04-09T10:00:51.824Z,23.10
2023-04-09T10:03:30.857Z,23.50
2023-04-09T10:06:04.881Z,24.10
2023-04-09T10:08:44.170Z,23.20
2023-04-09T10:11:16.878Z,24.50
2023-04-09T10:13:56.984Z,24.10
2023-04-09T10:19:20.827Z,21.30
2023-04-09T10:22:04.773Z,21.00
2023-04-09T10:24:42.308Z,20.30
2023-04-09T10:29:52.181Z,19.90
2023-04-09T10:32:28.443Z,18.30
2023-04-09T10:35:07.180Z,17.70
2023-04-09T10:37:39.941Z,17.50
2023-04-09T10:40:22.726Z,18.00
2023-04-09T10:42:57.082Z,16.40
2023-04-09T10:45:42.826Z,13.90
2023-04-09T10:48:22.942Z,13.70
2023-04-09T10:50:58.148Z,14.10
2023-04-09T10:53:42.285Z,13.90
2023-04-09T10:56:19.190Z,15.40
2023-04-09T10:58:51.963Z,14.90
2023-04-09T11:01:28.806Z,15.00
2023-04-09T11:04:22.158Z,12.10
2023-04-09T11:06:58.017Z,13.80
2023-04-09T11:09:30.522Z,15.30
2023-04-09T11:12:03.796Z,13.90
2023-04-09T11:14:39.255Z,13.00
2023-04-09T11:17:22.891Z,13.90
2023-04-09T11:20:02.629Z,15.00
2023-04-09T11:22:57.556Z,15.60
2023-04-09T11:25:40.197Z,15.20
2023-04-09T11:28:16.928Z,13.20
2023-04-09T11:30:53.501Z,13.00
2023-04-09T11:33:35.662Z,15.20
2023-04-09T11:36:09.547Z,15.50
2023-04-09T11:38:45.536Z,11.40
2023-04-09T11:41:18.159Z,8.70
2023-04-09T11:43:54.908Z,9.20
2023-04-09T11:46:28.017Z,9.90
2023-04-09T11:49:04.030Z,10.30
2023-04-09T11:51:39.753Z,14.70
2023-04-09T11:54:15.572Z,14.30
2023-04-09T11:56:55.971Z,13.80
2023-04-09T11:59:32.848Z,14.90
2023-04-09T12:02:20.683Z,14.20
2023-04-09T12:05:06.489Z,15.40
2023-04-09T12:07:42.323Z,14.90
2023-04-09T12:10:27.883Z,15.20
2023-04-09T12:13:05.010Z,15.60
2023-04-09T12:15:41.291Z,15.00
2023-04-09T12:18:17.646Z,14.90
2023-04-09T12:20:53.314Z,16.20
2023-04-09T12:23:26.128Z,16.90
2023-04-09T12:26:00.859Z,15.60
2023-04-09T12:28:35.050Z,16.60
2023-04-09T12:31:17.749Z,15.00
2023-04-09T12:33:52.916Z,14.50
2023-04-09T12:36:26.597Z,14.90
2023-04-09T12:38:59.807Z,15.10
2023-04-09T12:41:32.774Z,15.60
2023-04-09T12:44:15.618Z,15.60
2023-04-09T12:46:48.523Z,16.20
2023-04-09T12:49:31.245Z,17.90
2023-04-09T12:52:07.102Z,19.80
2023-04-09T12:54:40.522Z,15.90
2023-04-09T12:57:13.105Z,14.30
2023-04-09T12:59:49.360Z,14.80
2023-04-09T13:02:23.238Z,13.20
2023-04-09T13:04:55.680Z,15.00
2023-04-09T13:07:31.049Z,14.60
2023-04-09T13:10:06.144Z,12.50
2023-04-09T13:12:48.989Z,12.90
2023-04-09T13:15:22.128Z,13.40
2023-04-09T13:17:54.779Z,13.30
2023-04-09T13:20:27.529Z,14.80
2023-04-09T13:23:01.609Z,13.70
2023-04-09T13:25:34.091Z,13.60
2023-04-09T13:28:07.328Z,14.00
2023-04-09T13:30:39.890Z,14.40
2023-04-09T13:33:15.745Z,13.50
2023-04-09T13:35:48.475Z,13.00
2023-04-09T13:38:21.177Z,13.50
2023-04-09T13:40:56.425Z,13.90
2023-04-09T13:43:29.510Z,14.70
2023-04-09T13:46:08.508Z,15.40
2023-04-09T13:48:41.434Z,15.40
2023-04-09T13:51:14.186Z,14.10
2023-04-09T13:53:48.318Z,15.70
2023-04-09T13:56:22.070Z,22.20
2023-04-09T13:59:14.970Z,19.40
2023-04-09T14:01:57.621Z,16.50
2023-04-09T14:04:50.549Z,15.80
2023-04-09T14:07:33.356Z,13.90
2023-04-09T14:10:19.644Z,13.70
2023-04-09T14:12:55.665Z,13.80
2023-04-09T14:15:28.356Z,13.20
2023-04-09T14:18:01.053Z,13.30
2023-04-09T14:20:54.462Z,13.20
2023-04-09T14:23:28.621Z,12.70
2023-04-09T14:26:04.794Z,13.40
2023-04-09T14:28:41.943Z,12.80
2023-04-09T14:31:26.144Z,13.00
2023-04-09T14:33:59.645Z,13.00
2023-04-09T14:36:32.360Z,13.10
2023-04-09T14:39:09.555Z,13.30
2023-04-09T14:41:45.505Z,13.10
2023-04-09T14:44:21.203Z,13.10
2023-04-09T14:46:55.102Z,12.50
2023-04-09T14:49:28.121Z,12.20
2023-04-09T14:52:03.000Z,12.40
2023-04-09T14:54:35.853Z,11.90
2023-04-09T14:57:08.797Z,13.00
2023-04-09T14:59:41.538Z,13.40
2023-04-09T15:02:17.752Z,12.40
2023-04-09T15:04:52.927Z,12.50
2023-04-09T15:07:28.510Z,8.50
2023-04-09T15:10:01.215Z,11.50
2023-04-09T15:12:35.581Z,13.10
2023-04-09T15:15:11.462Z,13.00
2023-04-09T15:17:46.682Z,13.10
2023-04-09T15:20:22.801Z,12.90
2023-04-09T15:22:56.016Z,14.20
2023-04-09T15:25:32.813Z,13.60
2023-04-09T15:28:06.536Z,14.30
2023-04-09T15:30:39.335Z,12.90
2023-04-09T15:33:15.605Z,13.40
2023-04-09T15:35:52.410Z,12.60
2023-04-09T15:38:25.253Z,13.20
2023-04-09T15:40:58.820Z,11.30
2023-04-09T15:43:31.771Z,11.80
2023-04-09T15:46:13.545Z,11.60
2023-04-09T15:48:46.665Z,12.50
2023-04-09T15:51:19.367Z,16.50
2023-04-09T15:53:55.168Z,14.90
2023-04-09T15:56:27.495Z,12.90
2023-04-09T15:59:05.356Z,12.50
2023-04-09T16:01:38.109Z,13.80
2023-04-09T16:04:10.779Z,17.40
2023-04-09T16:06:43.590Z,15.80
2023-04-09T16:09:15.907Z,17.40
2023-04-09T16:11:48.486Z,15.40
2023-04-09T16:14:21.308Z,15.00
2023-04-09T16:16:54.011Z,18.10
2023-04-09T16:19:26.803Z,21.80
2023-04-09T16:21:59.662Z,19.90
2023-04-09T16:24:33.531Z,19.10
2023-04-09T16:27:09.410Z,19.20
2023-04-09T16:29:42.455Z,18.40
2023-04-09T16:32:15.186Z,18.30
2023-04-09T16:34:56.636Z,17.70
2023-04-09T16:37:29.745Z,17.90
2023-04-09T16:40:04.942Z,18.40
2023-04-09T16:42:40.937Z,17.90
2023-04-09T16:45:20.550Z,18.20
2023-04-09T16:47:56.413Z,17.60
2023-04-09T16:50:31.940Z,15.30
2023-04-09T16:53:05.061Z,15.50
2023-04-09T16:55:48.172Z,18.10
2023-04-09T16:58:23.965Z,17.60
2023-04-09T17:00:57.568Z,18.30
2023-04-09T17:03:30.314Z,18.70
2023-04-09T17:06:07.082Z,18.10
2023-04-09T17:08:40.038Z,21.30
2023-04-09T17:11:17.501Z,22.80
2023-04-09T17:13:50.538Z,29.70
2023-04-09T17:16:23.804Z,35.00
2023-04-09T17:18:59.780Z,33.60
2023-04-09T17:21:32.678Z,32.90
2023-04-09T17:24:09.000Z,32.80
2023-04-09T17:26:41.863Z,32.00
2023-04-09T17:29:14.388Z,30.90
2023-04-09T17:31:48.886Z,33.10
2023-04-09T17:34:24.265Z,32.50
2023-04-09T17:37:00.261Z,33.30
2023-04-09T17:39:37.418Z,35.00
2023-04-09T17:42:11.853Z,31.10
2023-04-09T17:44:46.222Z,28.80
2023-04-09T17:47:19.352Z,29.40
2023-04-09T17:49:53.324Z,29.80
2023-04-09T17:52:29.226Z,35.00
2023-04-09T17:55:23.532Z,35.30
2023-04-09T17:58:11.590Z,37.90
2023-04-09T18:01:07.726Z,38.00
2023-04-09T18:03:52.660Z,36.30
2023-04-09T18:06:29.368Z,35.80
2023-04-09T18:09:22.483Z,37.10
2023-04-09T18:12:00.100Z,34.60
2023-04-09T18:14:53.039Z,36.70
2023-04-09T18:17:45.931Z,36.80
2023-04-09T18:20:26.412Z,37.60
2023-04-09T18:22:59.079Z,39.80
2023-04-09T18:25:31.529Z,45.40
2023-04-09T18:28:07.724Z,46.40
2023-04-09T18:30:43.591Z,49.40
2023-04-09T18:33:18.994Z,51.20
2023-04-09T18:36:12.481Z,50.40
2023-04-09T18:39:06.649Z,45.70
2023-04-09T18:41:59.722Z,47.60
2023-04-09T18:44:52.816Z,48.20
2023-04-09T18:47:34.828Z,56.40
2023-04-09T18:50:09.639Z,67.60
2023-04-09T18:52:52.083Z,71.20
2023-04-09T18:55:24.300Z,79.20
2023-04-09T18:57:57.522Z,83.20
2023-04-09T19:00:37.456Z,71.40
2023-04-09T19:03:31.121Z,54.90
2023-04-09T19:06:27.963Z,50.90
2023-04-09T19:09:20.941Z,38.80
2023-04-09T19:12:04.967Z,39.30
2023-04-09T19:14:38.092Z,35.00
2023-04-09T19:17:13.466Z,31.30
2023-04-09T19:19:49.444Z,29.50
2023-04-09T19:22:25.323Z,30.50
2023-04-09T19:24:59.603Z,31.70
2023-04-09T19:27:54.458Z,31.50
2023-04-09T19:30:50.993Z,30.70
2023-04-09T19:33:34.754Z,31.60
2023-04-09T19:36:18.268Z,33.10
2023-04-09T19:38:56.368Z,34.40
2023-04-09T19:41:49.019Z,34.20
2023-04-09T19:44:42.351Z,35.30
2023-04-09T19:47:17.929Z,34.00
2023-04-09T19:49:59.737Z,34.90
2023-04-09T19:52:33.212Z,36.00
2023-04-09T19:55:19.134Z,37.40
2023-04-09T19:58:06.637Z,36.10
2023-04-09T20:00:42.020Z,37.70
2023-04-09T20:03:23.090Z,44.10
2023-04-09T20:05:55.801Z,46.50
2023-04-09T20:08:28.829Z,49.60
2023-04-09T20:11:22.652Z,58.90
2023-04-09T20:14:06.302Z,57.80
2023-04-09T20:16:39.257Z,56.10
2023-04-09T20:19:11.906Z,58.20
2023-04-09T20:21:53.022Z,58.50
2023-04-09T20:24:28.779Z,62.30
2023-04-09T20:27:23.627Z,65.60
2023-04-09T20:29:59.134Z,65.20
2023-04-09T20:32:31.645Z,61.70
2023-04-09T20:35:09.662Z,55.30
2023-04-09T20:37:44.800Z,46.20
2023-04-09T20:40:17.654Z,46.30
2023-04-09T20:43:00.585Z,43.70
2023-04-09T20:45:43.170Z,43.30
2023-04-09T20:48:19.025Z,41.20
2023-04-09T20:51:09.446Z,40.00
2023-04-09T20:53:42.289Z,43.00
2023-04-09T20:56:26.588Z,42.60
2023-04-09T20:58:59.809Z,42.70
2023-04-09T21:01:33.448Z,45.80
2023-04-09T21:04:06.751Z,46.90
2023-04-09T21:06:50.834Z,45.00
2023-04-09T21:09:24.735Z,47.80
2023-04-09T21:12:07.898Z,45.20
2023-04-09T21:14:42.735Z,46.40
2023-04-09T21:17:20.330Z,46.70
2023-04-09T21:20:02.999Z,43.80
2023-04-09T21:22:38.553Z,43.50
2023-04-09T21:25:13.780Z,42.70
2023-04-09T21:27:59.489Z,44.70
2023-04-09T21:30:32.871Z,43.80
2023-04-09T21:33:09.994Z,47.90
2023-04-09T21:35:54.660Z,51.90
2023-04-09T21:38:47.407Z,43.20
2023-04-09T21:41:19.880Z,44.00
2023-04-09T21:43:52.553Z,41.50
2023-04-09T21:46:25.234Z,42.50
2023-04-09T21:49:05.976Z,40.30
2023-04-09T21:51:39.916Z,41.90
2023-04-09T21:54:12.639Z,40.00
2023-04-09T21:56:55.419Z,41.40
2023-04-09T21:59:38.122Z,39.70
2023-04-09T22:02:14.057Z,41.40
2023-04-09T22:04:46.748Z,42.50
2023-04-09T22:07:30.679Z,41.30
2023-04-09T22:10:03.346Z,41.60
2023-04-09T22:12:38.761Z,39.20
2023-04-09T22:15:13.308Z,41.40
2023-04-09T22:17:53.137Z,41.00
2023-04-09T22:20:29.366Z,40.00
2023-04-09T22:23:08.938Z,44.10
2023-04-09T22:25:41.662Z,42.30
2023-04-09T22:28:18.155Z,38.50
2023-04-09T22:30:53.425Z,39.00
2023-04-09T22:36:12.292Z,39.10
2023-04-09T22:38:55.877Z,40.80
2023-04-09T22:41:31.012Z,39.70
2023-04-09T22:44:03.839Z,38.80
2023-04-09T22:46:36.715Z,39.10
2023-04-09T22:49:09.979Z,39.00
2023-04-09T22:51:43.932Z,38.00
2023-04-09T22:54:26.429Z,37.00
2023-04-09T22:56:59.128Z,39.70
2023-04-09T23:02:14.724Z,40.30
2023-04-09T23:04:50.342Z,37.80
2023-04-09T23:07:33.447Z,40.20
2023-04-09T23:10:14.211Z,42.60
2023-04-09T23:12:46.659Z,40.00
2023-04-09T23:15:19.798Z,40.30
2023-04-09T23:17:55.650Z,37.40
2023-04-09T23:20:30.583Z,36.10
2023-04-09T23:23:06.870Z,35.80
2023-04-09T23:25:39.704Z,35.10
2023-04-09T23:28:23.488Z,33.80
2023-04-09T23:31:05.848Z,32.40
2023-04-09T23:33:38.449Z,31.90
2023-04-09T23:36:11.693Z,31.20
2023-04-09T23:38:59.012Z,31.60
2023-04-09T23:41:41.694Z,31.50
2023-04-09T23:44:34.894Z,31.30
2023-04-09T23:47:12.016Z,32.00
2023-04-09T23:49:54.789Z,32.70
2023-04-09T23:52:52.557Z,31.90
2023-04-09T23:55:28.650Z,31.50
2023-04-09T23:58:01.754Z,31.50
